sensor_id;sensor_type;location;lat;lon;timestamp;pressure;altitude;pressure_sealevel;temperature;humidity
75938;BME280;64615;32.062;34.834;2022-12-16T00:00:16;101534.69;;;22.81;60.85
75938;BME280;64615;32.062;34.834;2022-12-16T00:02:42;101534.91;;;22.79;60.77
75938;BME280;64615;32.062;34.834;2022-12-16T00:05:08;101529.47;;;22.79;61.00
75938;BME280;64615;32.062;34.834;2022-12-16T00:07:33;101535.75;;;22.80;60.80
75938;BME280;64615;32.062;34.834;2022-12-16T00:09:59;101532.78;;;22.82;60.81
75938;BME280;64615;32.062;34.834;2022-12-16T00:12:25;101531.69;;;22.83;60.76
75938;BME280;64615;32.062;34.834;2022-12-16T00:14:51;101535.25;;;22.83;60.75
75938;BME280;64615;32.062;34.834;2022-12-16T00:17:16;101530.63;;;22.84;60.76
75938;BME280;64615;32.062;34.834;2022-12-16T00:19:42;101532.53;;;22.83;60.72
75938;BME280;64615;32.062;34.834;2022-12-16T00:22:08;101538.56;;;22.85;60.69
75938;BME280;64615;32.062;34.834;2022-12-16T00:24:33;101531.97;;;22.81;60.70
75938;BME280;64615;32.062;34.834;2022-12-16T00:26:59;101527.25;;;22.76;60.70
75938;BME280;64615;32.062;34.834;2022-12-16T00:29:25;101529.00;;;22.83;60.70
75938;BME280;64615;32.062;34.834;2022-12-16T00:31:50;101536.06;;;22.84;60.62
75938;BME280;64615;32.062;34.834;2022-12-16T00:34:16;101536.91;;;22.84;60.54
75938;BME280;64615;32.062;34.834;2022-12-16T00:36:42;101541.50;;;22.84;60.55
75938;BME280;64615;32.062;34.834;2022-12-16T00:39:11;101535.84;;;22.85;60.43
75938;BME280;64615;32.062;34.834;2022-12-16T00:41:37;101538.22;;;22.82;60.50
75938;BME280;64615;32.062;34.834;2022-12-16T00:44:02;101541.16;;;22.80;60.48
75938;BME280;64615;32.062;34.834;2022-12-16T00:46:28;101541.63;;;22.77;60.64
75938;BME280;64615;32.062;34.834;2022-12-16T00:48:54;101542.44;;;22.77;60.54
75938;BME280;64615;32.062;34.834;2022-12-16T00:51:19;101545.44;;;22.76;60.63
75938;BME280;64615;32.062;34.834;2022-12-16T00:53:45;101539.41;;;22.74;60.60
75938;BME280;64615;32.062;34.834;2022-12-16T00:56:12;101542.13;;;22.74;60.63
75938;BME280;64615;32.062;34.834;2022-12-16T00:58:42;101541.63;;;22.77;60.45
75938;BME280;64615;32.062;34.834;2022-12-16T01:01:08;101536.19;;;22.77;60.51
75938;BME280;64615;32.062;34.834;2022-12-16T01:03:35;101531.38;;;22.79;60.40
75938;BME280;64615;32.062;34.834;2022-12-16T01:06:06;101526.75;;;22.79;60.25
75938;BME280;64615;32.062;34.834;2022-12-16T01:08:32;101537.63;;;22.79;60.36
75938;BME280;64615;32.062;34.834;2022-12-16T01:10:57;101533.25;;;22.78;60.27
75938;BME280;64615;32.062;34.834;2022-12-16T01:13:25;101524.53;;;22.76;60.29
75938;BME280;64615;32.062;34.834;2022-12-16T01:15:51;101519.13;;;22.76;60.34
75938;BME280;64615;32.062;34.834;2022-12-16T01:18:17;101529.47;;;22.79;60.21
75938;BME280;64615;32.062;34.834;2022-12-16T01:20:43;101517.78;;;22.79;60.25
75938;BME280;64615;32.062;34.834;2022-12-16T01:23:09;101522.88;;;22.75;60.11
75938;BME280;64615;32.062;34.834;2022-12-16T01:25:35;101520.41;;;22.74;60.23
75938;BME280;64615;32.062;34.834;2022-12-16T01:28:01;101516.88;;;22.73;60.24
75938;BME280;64615;32.062;34.834;2022-12-16T01:30:27;101520.03;;;22.70;60.32
75938;BME280;64615;32.062;34.834;2022-12-16T01:32:52;101521.09;;;22.69;60.57
75938;BME280;64615;32.062;34.834;2022-12-16T01:35:18;101516.72;;;22.68;60.28
75938;BME280;64615;32.062;34.834;2022-12-16T01:37:43;101515.91;;;22.68;60.20
75938;BME280;64615;32.062;34.834;2022-12-16T01:40:22;101511.53;;;22.67;60.36
75938;BME280;64615;32.062;34.834;2022-12-16T01:42:48;101510.38;;;22.63;60.40
75938;BME280;64615;32.062;34.834;2022-12-16T01:45:34;101514.84;;;22.69;60.22
75938;BME280;64615;32.062;34.834;2022-12-16T01:50:35;101510.38;;;22.74;60.11
75938;BME280;64615;32.062;34.834;2022-12-16T01:53:03;101512.84;;;22.76;60.06
75938;BME280;64615;32.062;34.834;2022-12-16T01:55:39;101525.22;;;22.72;60.07
75938;BME280;64615;32.062;34.834;2022-12-16T01:58:20;101519.22;;;22.70;60.18
75938;BME280;64615;32.062;34.834;2022-12-16T02:00:47;101521.31;;;22.68;60.08
75938;BME280;64615;32.062;34.834;2022-12-16T02:03:13;101518.03;;;22.66;60.22
75938;BME280;64615;32.062;34.834;2022-12-16T02:05:40;101507.41;;;22.64;60.25
75938;BME280;64615;32.062;34.834;2022-12-16T02:16:17;101517.34;;;22.59;60.17
75938;BME280;64615;32.062;34.834;2022-12-16T02:34:50;101522.06;;;22.52;60.10
75938;BME280;64615;32.062;34.834;2022-12-16T02:37:42;101527.75;;;22.50;60.20
75938;BME280;64615;32.062;34.834;2022-12-16T02:40:26;101520.66;;;22.49;60.31
75938;BME280;64615;32.062;34.834;2022-12-16T02:42:59;101523.38;;;22.49;60.27
75938;BME280;64615;32.062;34.834;2022-12-16T02:45:28;101523.59;;;22.48;60.30
75938;BME280;64615;32.062;34.834;2022-12-16T02:47:55;101524.09;;;22.45;60.33
75938;BME280;64615;32.062;34.834;2022-12-16T02:50:44;101526.56;;;22.46;60.09
75938;BME280;64615;32.062;34.834;2022-12-16T02:53:12;101530.09;;;22.47;60.19
75938;BME280;64615;32.062;34.834;2022-12-16T03:03:44;101533.75;;;22.52;59.95
75938;BME280;64615;32.062;34.834;2022-12-16T03:06:13;101543.31;;;22.55;59.99
75938;BME280;64615;32.062;34.834;2022-12-16T03:08:43;101533.84;;;22.57;60.01
75938;BME280;64615;32.062;34.834;2022-12-16T03:11:10;101531.00;;;22.64;59.85
75938;BME280;64615;32.062;34.834;2022-12-16T03:13:46;101531.50;;;22.61;59.58
75938;BME280;64615;32.062;34.834;2022-12-16T03:16:17;101535.84;;;22.62;59.67
75938;BME280;64615;32.062;34.834;2022-12-16T03:18:47;101527.97;;;22.60;59.77
75938;BME280;64615;32.062;34.834;2022-12-16T03:21:14;101530.19;;;22.63;59.71
75938;BME280;64615;32.062;34.834;2022-12-16T03:23:46;101530.41;;;22.62;59.68
75938;BME280;64615;32.062;34.834;2022-12-16T03:26:19;101539.88;;;22.59;59.77
75938;BME280;64615;32.062;34.834;2022-12-16T03:29:00;101538.44;;;22.57;59.76
75938;BME280;64615;32.062;34.834;2022-12-16T03:36:53;101548.13;;;22.53;59.70
75938;BME280;64615;32.062;34.834;2022-12-16T03:39:21;101542.72;;;22.53;60.03
75938;BME280;64615;32.062;34.834;2022-12-16T03:41:51;101554.63;;;22.52;59.88
75938;BME280;64615;32.062;34.834;2022-12-16T03:44:20;101540.81;;;22.53;60.25
75938;BME280;64615;32.062;34.834;2022-12-16T03:46:47;101546.59;;;22.57;60.03
75938;BME280;64615;32.062;34.834;2022-12-16T03:49:12;101546.25;;;22.65;60.13
75938;BME280;64615;32.062;34.834;2022-12-16T03:51:38;101550.75;;;22.71;60.72
75938;BME280;64615;32.062;34.834;2022-12-16T03:54:04;101548.16;;;22.76;60.18
75938;BME280;64615;32.062;34.834;2022-12-16T03:56:30;101550.50;;;22.72;60.33
75938;BME280;64615;32.062;34.834;2022-12-16T03:58:55;101552.38;;;22.72;60.42
75938;BME280;64615;32.062;34.834;2022-12-16T04:01:21;101552.38;;;22.72;60.33
75938;BME280;64615;32.062;34.834;2022-12-16T04:03:48;101553.66;;;22.69;60.20
75938;BME280;64615;32.062;34.834;2022-12-16T04:06:13;101553.66;;;22.69;60.17
75938;BME280;64615;32.062;34.834;2022-12-16T04:08:46;101550.25;;;22.62;60.28
75938;BME280;64615;32.062;34.834;2022-12-16T04:11:15;101552.13;;;22.62;60.38
75938;BME280;64615;32.062;34.834;2022-12-16T04:13:59;101561.34;;;22.61;60.34
75938;BME280;64615;32.062;34.834;2022-12-16T04:16:43;101566.19;;;22.59;60.51
75938;BME280;64615;32.062;34.834;2022-12-16T04:19:33;101569.13;;;22.57;60.39
75938;BME280;64615;32.062;34.834;2022-12-16T04:22:24;101571.84;;;22.57;60.12
75938;BME280;64615;32.062;34.834;2022-12-16T04:25:15;101565.59;;;22.57;60.06
75938;BME280;64615;32.062;34.834;2022-12-16T04:27:43;101571.00;;;22.57;59.95
75938;BME280;64615;32.062;34.834;2022-12-16T04:30:19;101571.28;;;22.55;59.48
75938;BME280;64615;32.062;34.834;2022-12-16T04:32:53;101574.81;;;22.56;59.73
75938;BME280;64615;32.062;34.834;2022-12-16T04:35:38;101570.44;;;22.55;59.63
75938;BME280;64615;32.062;34.834;2022-12-16T04:38:22;101572.09;;;22.56;59.63
75938;BME280;64615;32.062;34.834;2022-12-16T04:41:07;101574.22;;;22.54;59.54
75938;BME280;64615;32.062;34.834;2022-12-16T04:43:51;101582.34;;;22.54;59.32
75938;BME280;64615;32.062;34.834;2022-12-16T04:46:35;101581.53;;;22.53;59.29
75938;BME280;64615;32.062;34.834;2022-12-16T04:49:20;101582.59;;;22.64;58.99
75938;BME280;64615;32.062;34.834;2022-12-16T04:52:04;101588.03;;;22.87;59.25
75938;BME280;64615;32.062;34.834;2022-12-16T04:54:49;101584.97;;;23.23;58.89
75938;BME280;64615;32.062;34.834;2022-12-16T04:57:33;101581.22;;;23.41;58.65
75938;BME280;64615;32.062;34.834;2022-12-16T05:00:17;101592.06;;;23.81;57.67
75938;BME280;64615;32.062;34.834;2022-12-16T05:03:02;101591.50;;;23.96;57.07
75938;BME280;64615;32.062;34.834;2022-12-16T05:05:46;101592.97;;;24.03;57.04
75938;BME280;64615;32.062;34.834;2022-12-16T05:08:30;101601.47;;;24.24;56.35
75938;BME280;64615;32.062;34.834;2022-12-16T05:11:14;101593.59;;;24.39;56.39
75938;BME280;64615;32.062;34.834;2022-12-16T05:13:59;101595.63;;;24.48;56.29
75938;BME280;64615;32.062;34.834;2022-12-16T05:16:43;101599.81;;;24.56;55.61
75938;BME280;64615;32.062;34.834;2022-12-16T05:19:27;101595.78;;;24.59;54.63
75938;BME280;64615;32.062;34.834;2022-12-16T05:22:11;101604.78;;;24.59;53.83
75938;BME280;64615;32.062;34.834;2022-12-16T05:24:55;101606.47;;;24.65;53.18
75938;BME280;64615;32.062;34.834;2022-12-16T05:27:39;101605.91;;;24.63;53.13
75938;BME280;64615;32.062;34.834;2022-12-16T05:30:23;101603.72;;;24.43;52.87
75938;BME280;64615;32.062;34.834;2022-12-16T05:33:07;101609.09;;;24.38;51.36
75938;BME280;64615;32.062;34.834;2022-12-16T05:35:51;101614.16;;;24.52;50.34
75938;BME280;64615;32.062;34.834;2022-12-16T05:38:36;101607.81;;;24.63;50.71
75938;BME280;64615;32.062;34.834;2022-12-16T05:41:19;101609.84;;;24.72;50.78
75938;BME280;64615;32.062;34.834;2022-12-16T05:44:04;101622.22;;;24.80;50.45
75938;BME280;64615;32.062;34.834;2022-12-16T05:46:48;101616.00;;;24.84;50.71
75938;BME280;64615;32.062;34.834;2022-12-16T05:49:32;101610.91;;;24.88;50.78
75938;BME280;64615;32.062;34.834;2022-12-16T05:52:16;101623.94;;;24.86;51.13
75938;BME280;64615;32.062;34.834;2022-12-16T05:55:00;101618.09;;;24.77;50.82
75938;BME280;64615;32.062;34.834;2022-12-16T05:57:48;101620.91;;;24.66;50.16
75938;BME280;64615;32.062;34.834;2022-12-16T06:00:34;101616.97;;;24.40;49.58
75938;BME280;64615;32.062;34.834;2022-12-16T06:03:19;101622.50;;;24.45;49.21
75938;BME280;64615;32.062;34.834;2022-12-16T06:06:03;101628.03;;;24.50;49.32
75938;BME280;64615;32.062;34.834;2022-12-16T06:08:47;101627.31;;;24.55;49.18
75938;BME280;64615;32.062;34.834;2022-12-16T06:11:31;101623.25;;;24.57;48.93
75938;BME280;64615;32.062;34.834;2022-12-16T06:14:15;101626.03;;;24.62;49.22
75938;BME280;64615;32.062;34.834;2022-12-16T06:17:00;101626.53;;;24.59;49.54
75938;BME280;64615;32.062;34.834;2022-12-16T06:19:44;101625.38;;;24.55;49.78
75938;BME280;64615;32.062;34.834;2022-12-16T06:22:28;101629.19;;;24.54;49.13
75938;BME280;64615;32.062;34.834;2022-12-16T06:25:12;101622.09;;;24.53;49.21
75938;BME280;64615;32.062;34.834;2022-12-16T06:27:56;101628.03;;;24.50;49.03
75938;BME280;64615;32.062;34.834;2022-12-16T06:30:39;101625.06;;;24.52;49.12
75938;BME280;64615;32.062;34.834;2022-12-16T06:33:23;101627.53;;;24.53;48.66
75938;BME280;64615;32.062;34.834;2022-12-16T06:36:08;101632.75;;;24.55;49.18
75938;BME280;64615;32.062;34.834;2022-12-16T06:38:52;101636.53;;;24.54;48.65
75938;BME280;64615;32.062;34.834;2022-12-16T06:41:36;101640.09;;;24.54;48.55
75938;BME280;64615;32.062;34.834;2022-12-16T06:44:20;101644.34;;;24.50;48.86
75938;BME280;64615;32.062;34.834;2022-12-16T06:47:04;101636.53;;;24.54;49.15
75938;BME280;64615;32.062;34.834;2022-12-16T06:49:48;101650.81;;;24.44;48.85
75938;BME280;64615;32.062;34.834;2022-12-16T06:52:32;101651.13;;;24.47;49.18
75938;BME280;64615;32.062;34.834;2022-12-16T06:55:16;101656.56;;;24.47;48.93
75938;BME280;64615;32.062;34.834;2022-12-16T06:58:00;101647.81;;;24.45;49.08
75938;BME280;64615;32.062;34.834;2022-12-16T07:00:45;101648.56;;;24.41;49.01
75938;BME280;64615;32.062;34.834;2022-12-16T07:03:29;101651.28;;;24.41;48.85
75938;BME280;64615;32.062;34.834;2022-12-16T07:06:13;101652.34;;;24.40;48.67
75938;BME280;64615;32.062;34.834;2022-12-16T07:08:57;101654.44;;;24.33;48.77
75938;BME280;64615;32.062;34.834;2022-12-16T07:11:41;101654.59;;;24.26;49.11
75938;BME280;64615;32.062;34.834;2022-12-16T07:14:25;101652.16;;;24.13;49.79
75938;BME280;64615;32.062;34.834;2022-12-16T07:17:09;101650.03;;;24.15;49.40
75938;BME280;64615;32.062;34.834;2022-12-16T07:19:53;101653.19;;;24.24;49.82
75938;BME280;64615;32.062;34.834;2022-12-16T07:22:42;101646.50;;;24.31;49.44
75938;BME280;64615;32.062;34.834;2022-12-16T07:25:25;101650.63;;;24.34;49.26
75938;BME280;64615;32.062;34.834;2022-12-16T07:28:10;101645.78;;;24.36;48.34
75938;BME280;64615;32.062;34.834;2022-12-16T07:30:55;101644.72;;;24.37;48.47
75938;BME280;64615;32.062;34.834;2022-12-16T07:33:40;101645.28;;;24.22;48.45
75938;BME280;64615;32.062;34.834;2022-12-16T07:36:24;101647.19;;;24.22;48.27
75938;BME280;64615;32.062;34.834;2022-12-16T07:39:08;101647.34;;;24.32;48.13
75938;BME280;64615;32.062;34.834;2022-12-16T07:41:52;101644.53;;;24.27;47.73
75938;BME280;64615;32.062;34.834;2022-12-16T07:44:36;101639.66;;;24.12;48.53
75938;BME280;64615;32.062;34.834;2022-12-16T07:47:20;101641.97;;;24.20;48.25
75938;BME280;64615;32.062;34.834;2022-12-16T07:50:04;101635.22;;;24.23;48.43
75938;BME280;64615;32.062;34.834;2022-12-16T07:52:59;101638.56;;;24.13;49.38
75938;BME280;64615;32.062;34.834;2022-12-16T07:55:44;101635.19;;;24.06;49.67
75938;BME280;64615;32.062;34.834;2022-12-16T07:58:29;101628.75;;;23.95;49.64
75938;BME280;64615;32.062;34.834;2022-12-16T08:01:13;101635.38;;;23.88;49.57
75938;BME280;64615;32.062;34.834;2022-12-16T08:03:58;101627.09;;;23.94;49.54
75938;BME280;64615;32.062;34.834;2022-12-16T08:06:43;101630.72;;;24.00;49.42
75938;BME280;64615;32.062;34.834;2022-12-16T08:09:27;101628.22;;;23.82;49.35
75938;BME280;64615;32.062;34.834;2022-12-16T08:12:11;101621.53;;;23.73;49.58
75938;BME280;64615;32.062;34.834;2022-12-16T08:14:55;101616.03;;;23.56;49.44
75938;BME280;64615;32.062;34.834;2022-12-16T08:17:50;101611.09;;;23.53;49.93
75938;BME280;64615;32.062;34.834;2022-12-16T08:20:34;101604.34;;;23.55;49.38
75938;BME280;64615;32.062;34.834;2022-12-16T08:23:18;101596.78;;;23.57;49.47
75938;BME280;64615;32.062;34.834;2022-12-16T08:26:02;101598.44;;;23.58;49.20
75938;BME280;64615;32.062;34.834;2022-12-16T08:28:46;101593.13;;;23.52;49.21
75938;BME280;64615;32.062;34.834;2022-12-16T08:31:31;101583.09;;;23.52;49.87
75938;BME280;64615;32.062;34.834;2022-12-16T08:34:15;101576.59;;;23.53;49.89
75938;BME280;64615;32.062;34.834;2022-12-16T08:36:59;101577.59;;;23.36;50.08
75938;BME280;64615;32.062;34.834;2022-12-16T08:39:43;101567.31;;;23.38;49.80
75938;BME280;64615;32.062;34.834;2022-12-16T08:42:28;101564.69;;;23.43;49.62
75938;BME280;64615;32.062;34.834;2022-12-16T08:45:13;101555.69;;;23.42;49.80
75938;BME280;64615;32.062;34.834;2022-12-16T08:47:57;101556.06;;;23.46;50.32
75938;BME280;64615;32.062;34.834;2022-12-16T08:50:41;101543.81;;;23.32;49.87
75938;BME280;64615;32.062;34.834;2022-12-16T08:53:25;101545.03;;;23.24;48.95
75938;BME280;64615;32.062;34.834;2022-12-16T08:56:09;101530.69;;;23.12;49.46
75938;BME280;64615;32.062;34.834;2022-12-16T08:58:53;101532.16;;;23.19;49.66
75938;BME280;64615;32.062;34.834;2022-12-16T09:01:37;101521.41;;;23.24;49.75
75938;BME280;64615;32.062;34.834;2022-12-16T09:04:21;101516.66;;;23.32;49.95
75938;BME280;64615;32.062;34.834;2022-12-16T09:07:05;101515.91;;;23.36;50.13
75938;BME280;64615;32.062;34.834;2022-12-16T09:09:49;101505.88;;;23.37;50.21
75938;BME280;64615;32.062;34.834;2022-12-16T09:12:33;101500.75;;;23.40;50.80
75938;BME280;64615;32.062;34.834;2022-12-16T09:15:17;101496.16;;;23.41;50.95
75938;BME280;64615;32.062;34.834;2022-12-16T09:18:01;101496.16;;;23.41;51.29
75938;BME280;64615;32.062;34.834;2022-12-16T09:20:45;101493.44;;;23.41;51.30
75938;BME280;64615;32.062;34.834;2022-12-16T09:23:29;101490.72;;;23.41;51.47
75938;BME280;64615;32.062;34.834;2022-12-16T09:26:13;101475.84;;;23.43;51.60
75938;BME280;64615;32.062;34.834;2022-12-16T09:28:57;101478.56;;;23.43;51.60
75938;BME280;64615;32.062;34.834;2022-12-16T09:31:41;101473.13;;;23.43;51.68
75938;BME280;64615;32.062;34.834;2022-12-16T09:34:25;101473.09;;;23.27;51.77
75938;BME280;64615;32.062;34.834;2022-12-16T09:37:09;101465.44;;;23.23;52.00
75938;BME280;64615;32.062;34.834;2022-12-16T09:39:54;101460.34;;;23.27;52.08
75938;BME280;64615;32.062;34.834;2022-12-16T09:42:41;101461.25;;;23.33;52.32
75938;BME280;64615;32.062;34.834;2022-12-16T09:45:32;101456.66;;;23.33;52.21
75938;BME280;64615;32.062;34.834;2022-12-16T09:51:15;101435.22;;;23.37;52.47
75938;BME280;64615;32.062;34.834;2022-12-16T09:54:00;101437.63;;;23.33;51.97
75938;BME280;64615;32.062;34.834;2022-12-16T09:56:46;101442.16;;;23.28;52.13
75938;BME280;64615;32.062;34.834;2022-12-16T09:59:36;101437.28;;;23.30;52.87
75938;BME280;64615;32.062;34.834;2022-12-16T10:02:23;101431.94;;;23.35;52.36
75938;BME280;64615;32.062;34.834;2022-12-16T10:05:12;101432.84;;;23.40;52.75
75938;BME280;64615;32.062;34.834;2022-12-16T10:11:22;101426.81;;;23.50;52.55
75938;BME280;64615;32.062;34.834;2022-12-16T10:14:29;101420.78;;;23.48;52.46
75938;BME280;64615;32.062;34.834;2022-12-16T10:17:22;101421.50;;;23.43;52.80
75938;BME280;64615;32.062;34.834;2022-12-16T10:23:20;101410.69;;;23.32;53.33
75938;BME280;64615;32.062;34.834;2022-12-16T10:29:12;101407.97;;;23.32;53.49
75938;BME280;64615;32.062;34.834;2022-12-16T10:31:57;101410.38;;;23.28;53.77
75938;BME280;64615;32.062;34.834;2022-12-16T10:34:41;101398.91;;;23.26;53.98
75938;BME280;64615;32.062;34.834;2022-12-16T10:37:31;101402.31;;;23.33;54.82
75938;BME280;64615;32.062;34.834;2022-12-16T10:40:18;101402.03;;;23.35;54.60
75938;BME280;64615;32.062;34.834;2022-12-16T10:43:12;101399.66;;;23.38;54.99
75938;BME280;64615;32.062;34.834;2022-12-16T10:45:58;101394.44;;;23.48;54.64
75938;BME280;64615;32.062;34.834;2022-12-16T10:48:43;101395.25;;;23.49;54.65
75938;BME280;64615;32.062;34.834;2022-12-16T10:51:28;101400.19;;;23.52;54.65
75938;BME280;64615;32.062;34.834;2022-12-16T11:00:40;101395.25;;;23.49;54.64
75938;BME280;64615;32.062;34.834;2022-12-16T11:03:27;101392.03;;;23.52;54.63
75938;BME280;64615;32.062;34.834;2022-12-16T11:06:16;101393.09;;;23.51;54.79
75938;BME280;64615;32.062;34.834;2022-12-16T11:09:20;101380.47;;;23.45;55.13
75938;BME280;64615;32.062;34.834;2022-12-16T11:12:23;101382.88;;;23.41;54.87
75938;BME280;64615;32.062;34.834;2022-12-16T11:15:33;101386.09;;;23.38;55.31
75938;BME280;64615;32.062;34.834;2022-12-16T11:18:19;101384.44;;;23.37;55.36
75938;BME280;64615;32.062;34.834;2022-12-16T11:21:11;101377.34;;;23.36;55.46
75938;BME280;64615;32.062;34.834;2022-12-16T11:27:03;101387.38;;;23.36;55.47
75938;BME280;64615;32.062;34.834;2022-12-16T11:30:04;101377.34;;;23.36;55.26
75938;BME280;64615;32.062;34.834;2022-12-16T11:32:59;101381.47;;;23.39;55.49
75938;BME280;64615;32.062;34.834;2022-12-16T11:35:51;101376.59;;;23.41;55.48
75938;BME280;64615;32.062;34.834;2022-12-16T11:38:45;101376.38;;;23.42;55.64
75938;BME280;64615;32.062;34.834;2022-12-16T11:41:36;101376.72;;;23.46;55.44
75938;BME280;64615;32.062;34.834;2022-12-16T11:44:28;101375.66;;;23.47;55.55
75938;BME280;64615;32.062;34.834;2022-12-16T11:47:34;101386.50;;;23.47;55.83
75938;BME280;64615;32.062;34.834;2022-12-16T11:50:22;101378.00;;;23.43;55.71
75938;BME280;64615;32.062;34.834;2022-12-16T11:56:13;101378.13;;;23.48;55.66
75938;BME280;64615;32.062;34.834;2022-12-16T11:59:02;101379.19;;;23.47;55.81
75938;BME280;64615;32.062;34.834;2022-12-16T12:01:55;101389.56;;;23.50;55.90
75938;BME280;64615;32.062;34.834;2022-12-16T12:04:40;101384.94;;;23.51;55.80
75938;BME280;64615;32.062;34.834;2022-12-16T12:13:49;101382.16;;;23.46;56.44
75938;BME280;64615;32.062;34.834;2022-12-16T12:20:23;101379.19;;;23.47;56.12
75938;BME280;64615;32.062;34.834;2022-12-16T12:23:06;101375.88;;;23.45;56.71
75938;BME280;64615;32.062;34.834;2022-12-16T12:26:09;101374.91;;;23.51;56.20
75938;BME280;64615;32.062;34.834;2022-12-16T12:32:18;101378.03;;;23.60;56.10
75938;BME280;64615;32.062;34.834;2022-12-16T12:42:17;101380.75;;;23.98;56.68
75938;BME280;64615;32.062;34.834;2022-12-16T12:53:53;101385.25;;;24.10;57.36
75938;BME280;64615;32.062;34.834;2022-12-16T12:56:49;101394.22;;;24.27;59.98
75938;BME280;64615;32.062;34.834;2022-12-16T13:05:45;101391.75;;;24.96;64.64
75938;BME280;64615;32.062;34.834;2022-12-16T13:11:32;101394.97;;;24.71;65.65
75938;BME280;64615;32.062;34.834;2022-12-16T13:17:22;101384.53;;;24.36;64.59
75938;BME280;64615;32.062;34.834;2022-12-16T13:20:34;101390.09;;;24.24;64.34
75938;BME280;64615;32.062;34.834;2022-12-16T13:26:16;101396.72;;;24.12;63.54
75938;BME280;64615;32.062;34.834;2022-12-16T13:35:01;101394.94;;;24.00;63.03
75938;BME280;64615;32.062;34.834;2022-12-16T13:38:01;101395.41;;;23.97;62.54
75938;BME280;64615;32.062;34.834;2022-12-16T13:43:51;101385.97;;;23.83;62.22
75938;BME280;64615;32.062;34.834;2022-12-16T13:46:49;101392.47;;;23.82;61.99
75938;BME280;64615;32.062;34.834;2022-12-16T13:52:52;101391.84;;;23.75;61.49
75938;BME280;64615;32.062;34.834;2022-12-16T13:55:53;101395.31;;;23.71;61.59
75938;BME280;64615;32.062;34.834;2022-12-16T13:58:41;101400.69;;;23.66;61.25
75938;BME280;64615;32.062;34.834;2022-12-16T14:01:34;101395.13;;;23.60;61.15
75938;BME280;64615;32.062;34.834;2022-12-16T14:04:25;101393.53;;;23.59;60.73
75938;BME280;64615;32.062;34.834;2022-12-16T14:07:09;101403.28;;;23.60;60.90
75938;BME280;64615;32.062;34.834;2022-12-16T14:09:54;101398.13;;;23.59;60.70
75938;BME280;64615;32.062;34.834;2022-12-16T14:16:06;101394.63;;;23.13;57.63
75938;BME280;64615;32.062;34.834;2022-12-16T14:19:25;101404.25;;;23.04;58.99
75938;BME280;64615;32.062;34.834;2022-12-16T14:25:19;101405.31;;;23.03;58.96
75938;BME280;64615;32.062;34.834;2022-12-16T14:28:27;101403.00;;;22.95;57.70
75938;BME280;64615;32.062;34.834;2022-12-16T14:31:20;101402.63;;;22.75;58.22
75938;BME280;64615;32.062;34.834;2022-12-16T14:34:18;101405.22;;;22.70;57.94
75938;BME280;64615;32.062;34.834;2022-12-16T14:37:27;101406.28;;;22.69;58.18
75938;BME280;64615;32.062;34.834;2022-12-16T14:43:20;101408.28;;;22.62;58.38
75938;BME280;64615;32.062;34.834;2022-12-16T14:46:49;101411.41;;;22.54;58.81
75938;BME280;64615;32.062;34.834;2022-12-16T14:49:28;101415.72;;;22.66;58.72
75938;BME280;64615;32.062;34.834;2022-12-16T14:52:31;101414.91;;;22.66;58.24
75938;BME280;64615;32.062;34.834;2022-12-16T14:55:18;101415.88;;;22.60;58.36
75938;BME280;64615;32.062;34.834;2022-12-16T14:58:08;101414.31;;;22.64;57.92
75938;BME280;64615;32.062;34.834;2022-12-16T15:00:53;101421.75;;;22.57;58.21
75938;BME280;64615;32.062;34.834;2022-12-16T15:03:39;101413.91;;;22.44;58.45
75938;BME280;64615;32.062;34.834;2022-12-16T15:06:52;101410.84;;;22.40;58.69
75938;BME280;64615;32.062;34.834;2022-12-16T15:09:43;101419.06;;;22.57;58.27
75938;BME280;64615;32.062;34.834;2022-12-16T15:12:42;101427.63;;;22.77;57.72
75938;BME280;64615;32.062;34.834;2022-12-16T15:18:25;101424.03;;;22.88;57.23
75938;BME280;64615;32.062;34.834;2022-12-16T15:21:10;101434.06;;;22.88;57.33
75938;BME280;64615;32.062;34.834;2022-12-16T15:23:54;101431.34;;;22.88;57.27
75938;BME280;64615;32.062;34.834;2022-12-16T15:26:47;101425.59;;;22.84;57.51
75938;BME280;64615;32.062;34.834;2022-12-16T15:29:36;101435.97;;;22.87;57.37
75938;BME280;64615;32.062;34.834;2022-12-16T15:35:23;101442.06;;;22.94;56.96
75938;BME280;64615;32.062;34.834;2022-12-16T15:38:12;101439.13;;;22.96;57.00
75938;BME280;64615;32.062;34.834;2022-12-16T15:41:04;101448.66;;;22.98;56.81
75938;BME280;64615;32.062;34.834;2022-12-16T16:02:16;101461.31;;;22.93;57.48
75938;BME280;64615;32.062;34.834;2022-12-16T16:05:22;101457.06;;;22.97;57.79
75938;BME280;64615;32.062;34.834;2022-12-16T16:08:13;101464.94;;;22.98;57.77
75938;BME280;64615;32.062;34.834;2022-12-16T16:11:04;101465.22;;;22.97;58.38
75938;BME280;64615;32.062;34.834;2022-12-16T16:13:55;101471.81;;;23.01;58.10
75938;BME280;64615;32.062;34.834;2022-12-16T16:16:46;101463.97;;;23.04;57.79
75938;BME280;64615;32.062;34.834;2022-12-16T16:19:37;101470.56;;;23.08;57.66
75938;BME280;64615;32.062;34.834;2022-12-16T16:22:28;101475.91;;;23.03;58.88
75938;BME280;64615;32.062;34.834;2022-12-16T16:25:20;101475.13;;;23.03;59.18
75938;BME280;64615;32.062;34.834;2022-12-16T16:28:10;101468.59;;;23.04;58.89
75938;BME280;64615;32.062;34.834;2022-12-16T16:31:01;101471.81;;;23.01;59.07
75938;BME280;64615;32.062;34.834;2022-12-16T16:33:52;101479.13;;;23.00;59.07